createdAt,value
2022-12-23T00:02:02.520Z,39.03
2022-12-23T00:04:30.150Z,35.63
2022-12-23T00:06:57.713Z,34.45
2022-12-23T00:09:25.311Z,32.83
2022-12-23T00:12:06.737Z,41.65
2022-12-23T00:14:51.692Z,41.38
2022-12-23T00:17:22.672Z,38.35
2022-12-23T00:19:50.893Z,32.15
2022-12-23T00:22:18.416Z,29.08
2022-12-23T00:24:46.001Z,37.90
2022-12-23T00:27:13.639Z,35.80
2022-12-23T00:29:41.266Z,32.80
2022-12-23T00:32:08.865Z,35.78
2022-12-23T00:34:36.553Z,37.13
2022-12-23T00:37:04.081Z,37.50
2022-12-23T00:39:54.640Z,28.73
2022-12-23T00:42:39.903Z,41.22
2022-12-23T00:45:16.407Z,32.80
2022-12-23T00:48:06.469Z,37.22
2022-12-23T00:50:37.114Z,38.22
2022-12-23T00:53:05.854Z,33.33
2022-12-23T00:55:33.482Z,40.90
2022-12-23T00:58:01.058Z,34.72
2022-12-23T01:00:42.484Z,32.45
2022-12-23T01:03:34.398Z,32.10
2022-12-23T01:06:03.447Z,36.13
2022-12-23T01:08:31.241Z,34.17
2022-12-23T01:11:04.035Z,35.38
2022-12-23T01:13:31.660Z,35.38
2022-12-23T01:16:02.471Z,36.33
2022-12-23T01:18:30.120Z,30.05
2022-12-23T01:20:57.702Z,28.33
2022-12-23T01:23:25.281Z,29.92
2022-12-23T01:26:05.363Z,31.00
2022-12-23T01:28:33.976Z,27.15
2022-12-23T01:31:02.888Z,29.92
2022-12-23T01:33:31.165Z,27.80
2022-12-23T01:36:08.693Z,24.20
2022-12-23T01:38:37.013Z,21.80
2022-12-23T01:41:04.697Z,23.70
2022-12-23T01:43:51.118Z,15.23
2022-12-23T01:46:19.602Z,15.20
2022-12-23T01:48:52.811Z,16.38
2022-12-23T01:51:27.263Z,15.30
2022-12-23T01:54:01.122Z,14.93
2022-12-23T01:56:40.554Z,19.60
2022-12-23T01:59:33.872Z,12.57
2022-12-23T02:02:19.764Z,18.52
2022-12-23T02:04:48.309Z,17.27
2022-12-23T02:07:33.707Z,19.63
2022-12-23T02:10:01.444Z,18.95
2022-12-23T02:12:49.700Z,16.60
2022-12-23T02:15:53.210Z,11.88
2022-12-23T02:19:02.309Z,18.35
2022-12-23T02:21:47.824Z,19.48
2022-12-23T02:24:37.382Z,16.13
2022-12-23T02:27:28.100Z,11.90
2022-12-23T02:30:24.152Z,18.08
2022-12-23T02:32:54.593Z,17.70
2022-12-23T02:35:37.019Z,14.25
2022-12-23T02:38:11.985Z,17.27
2022-12-23T02:40:42.229Z,17.75
2022-12-23T02:43:36.609Z,18.30
2022-12-23T02:46:31.026Z,20.85
2022-12-23T02:49:08.411Z,22.23
2022-12-23T02:51:41.571Z,17.02
2022-12-23T02:54:13.963Z,19.00
2022-12-23T02:59:16.723Z,20.58
2022-12-23T03:04:13.630Z,20.63
2022-12-23T03:06:44.188Z,18.20
2022-12-23T03:09:33.953Z,20.25
2022-12-23T03:12:22.245Z,18.80
2022-12-23T03:15:08.173Z,18.48
2022-12-23T03:18:03.335Z,20.40
2022-12-23T03:20:38.554Z,12.07
2022-12-23T03:23:24.236Z,14.45
2022-12-23T03:26:06.891Z,15.43
2022-12-23T03:28:53.114Z,13.27
2022-12-23T03:31:26.259Z,16.65
2022-12-23T03:33:59.181Z,14.55
2022-12-23T03:36:31.179Z,12.10
2022-12-23T03:38:59.376Z,13.52
2022-12-23T03:41:40.047Z,13.15
2022-12-23T03:44:12.308Z,14.38
2022-12-23T03:46:45.067Z,14.05
2022-12-23T03:49:28.378Z,16.98
2022-12-23T03:52:05.007Z,17.30
2022-12-23T03:54:39.069Z,20.75
2022-12-23T03:57:09.231Z,19.33
2022-12-23T03:59:42.201Z,26.85
2022-12-23T04:02:33.134Z,19.42
2022-12-23T04:05:08.818Z,19.65
2022-12-23T04:07:41.320Z,19.17
2022-12-23T04:10:10.722Z,19.10
2022-12-23T04:12:39.410Z,18.10
2022-12-23T04:15:12.572Z,19.80
2022-12-23T04:17:40.713Z,22.50
2022-12-23T04:20:08.757Z,20.98
2022-12-23T04:22:36.279Z,21.00
2022-12-23T04:25:03.914Z,20.35
2022-12-23T04:27:31.453Z,17.92
2022-12-23T04:29:58.915Z,19.00
2022-12-23T04:32:26.726Z,22.13
2022-12-23T04:34:54.181Z,19.33
2022-12-23T04:37:21.650Z,17.08
2022-12-23T04:39:49.155Z,18.17
2022-12-23T04:42:16.687Z,21.13
2022-12-23T04:44:44.242Z,24.15
2022-12-23T04:47:11.757Z,18.85
2022-12-23T04:49:39.266Z,18.63
2022-12-23T04:52:06.807Z,20.83
2022-12-23T04:54:36.442Z,18.42
2022-12-23T04:57:06.847Z,22.27
2022-12-23T04:59:34.950Z,17.42
2022-12-23T05:02:02.695Z,18.52
2022-12-23T05:04:30.595Z,18.05
2022-12-23T05:06:58.137Z,20.08
2022-12-23T05:09:25.811Z,16.42
2022-12-23T05:11:53.368Z,15.68
2022-12-23T05:14:20.921Z,13.45
2022-12-23T05:16:48.592Z,16.52
2022-12-23T05:19:16.322Z,14.13
2022-12-23T05:21:43.842Z,15.32
2022-12-23T05:24:11.495Z,15.13
2022-12-23T05:26:39.066Z,13.43
2022-12-23T05:29:06.701Z,13.75
2022-12-23T05:31:34.456Z,13.40
2022-12-23T05:34:06.398Z,15.60
2022-12-23T05:39:01.853Z,15.80
2022-12-23T05:41:29.445Z,14.75
2022-12-23T05:43:56.964Z,15.18
2022-12-23T05:46:26.886Z,14.82
2022-12-23T05:48:54.966Z,13.93
2022-12-23T05:51:22.561Z,16.48
2022-12-23T05:53:50.093Z,21.73
2022-12-23T05:56:17.633Z,15.20
2022-12-23T05:58:45.169Z,16.27
2022-12-23T06:01:12.694Z,17.58
2022-12-23T06:03:40.335Z,14.60
2022-12-23T06:06:08.367Z,20.90
2022-12-23T06:08:36.216Z,17.13
2022-12-23T06:11:06.076Z,15.68
2022-12-23T06:13:33.649Z,15.95
2022-12-23T06:16:01.179Z,18.42
2022-12-23T06:18:28.676Z,16.83
2022-12-23T06:20:56.246Z,19.30
2022-12-23T06:23:23.770Z,16.60
2022-12-23T06:25:51.243Z,17.83
2022-12-23T06:28:18.755Z,20.30
2022-12-23T06:30:46.273Z,25.17
2022-12-23T06:33:13.773Z,20.33
2022-12-23T06:35:41.280Z,24.75
2022-12-23T06:38:12.074Z,24.40
2022-12-23T06:40:40.249Z,27.15
2022-12-23T06:43:07.870Z,19.85
2022-12-23T06:45:35.936Z,21.35
2022-12-23T06:48:03.492Z,22.80
2022-12-23T06:50:30.990Z,21.90
2022-12-23T06:52:58.544Z,24.15
2022-12-23T06:55:26.090Z,23.23
2022-12-23T06:57:53.640Z,28.20
2022-12-23T07:00:21.659Z,22.45
2022-12-23T07:02:49.251Z,22.77
2022-12-23T07:05:17.380Z,29.30
2022-12-23T07:07:44.970Z,22.10
2022-12-23T07:10:12.760Z,25.58
2022-12-23T07:12:42.631Z,25.90
2022-12-23T07:15:13.586Z,23.60
2022-12-23T07:17:41.085Z,24.52
2022-12-23T07:20:09.874Z,23.38
2022-12-23T07:22:37.429Z,22.88
2022-12-23T07:25:05.203Z,26.00
2022-12-23T07:27:32.749Z,25.88
2022-12-23T07:30:00.246Z,20.77
2022-12-23T07:32:27.748Z,20.33
2022-12-23T07:34:55.335Z,26.77
2022-12-23T07:37:22.970Z,23.63
2022-12-23T07:39:50.496Z,23.15
2022-12-23T07:42:44.168Z,22.80
2022-12-23T07:45:06.292Z,22.55
2022-12-23T07:47:33.759Z,24.35
2022-12-23T07:50:01.347Z,25.25
2022-12-23T07:52:30.071Z,23.15
2022-12-23T07:54:57.575Z,23.58
2022-12-23T07:57:25.361Z,26.98
2022-12-23T07:59:52.838Z,25.02
2022-12-23T08:02:22.127Z,20.73
2022-12-23T08:04:49.943Z,24.92
2022-12-23T08:07:17.485Z,22.10
2022-12-23T08:09:45.011Z,22.67
2022-12-23T08:12:12.608Z,21.05
2022-12-23T08:14:40.118Z,19.73
2022-12-23T08:17:07.860Z,20.33
2022-12-23T08:19:35.448Z,24.70
2022-12-23T08:22:02.984Z,22.80
2022-12-23T08:24:30.513Z,17.90
2022-12-23T08:26:58.298Z,26.88
2022-12-23T08:29:28.880Z,23.52
2022-12-23T08:31:58.787Z,24.98
2022-12-23T08:34:26.397Z,26.42
2022-12-23T08:36:53.874Z,24.10
2022-12-23T08:39:22.838Z,32.38
2022-12-23T08:41:50.499Z,35.58
2022-12-23T08:44:18.098Z,28.35
2022-12-23T08:46:46.095Z,37.20
2022-12-23T08:49:13.860Z,38.78
2022-12-23T08:51:41.428Z,36.92
2022-12-23T08:54:10.239Z,44.13
2022-12-23T08:56:42.677Z,34.63
2022-12-23T09:01:48.699Z,41.10
2022-12-23T09:04:16.807Z,44.10
2022-12-23T09:06:45.422Z,41.60
2022-12-23T09:09:15.534Z,41.20
2022-12-23T09:11:43.870Z,52.15
2022-12-23T09:14:12.715Z,45.08
2022-12-23T09:16:40.378Z,42.65
2022-12-23T09:19:08.703Z,39.50
2022-12-23T09:21:36.275Z,43.72
2022-12-23T09:24:03.824Z,31.10
2022-12-23T09:26:32.431Z,34.42
2022-12-23T09:29:00.424Z,31.70
2022-12-23T09:31:34.402Z,31.55
2022-12-23T09:34:04.422Z,30.65
2022-12-23T09:36:32.104Z,30.70
2022-12-23T09:39:00.241Z,32.03
2022-12-23T09:41:47.446Z,28.48
2022-12-23T09:44:36.244Z,32.95
2022-12-23T09:47:07.123Z,27.73
2022-12-23T09:49:35.439Z,25.60
2022-12-23T09:52:06.771Z,27.65
2022-12-23T09:54:45.943Z,32.10
2022-12-23T09:57:22.421Z,28.02
2022-12-23T10:00:15.599Z,30.45
2022-12-23T10:03:01.694Z,23.02
2022-12-23T10:05:47.991Z,27.00
2022-12-23T10:08:45.881Z,25.70
2022-12-23T10:11:21.734Z,26.95
2022-12-23T10:14:03.856Z,26.35
2022-12-23T10:16:35.494Z,28.02
2022-12-23T10:19:09.904Z,33.75
2022-12-23T10:22:01.054Z,28.65
2022-12-23T10:24:37.724Z,31.50
2022-12-23T10:27:38.285Z,29.83
2022-12-23T10:30:34.255Z,29.73
2022-12-23T10:33:10.244Z,34.95
2022-12-23T10:35:53.114Z,38.75
2022-12-23T10:38:42.019Z,44.17
2022-12-23T10:41:24.582Z,48.22
2022-12-23T10:47:05.580Z,45.80
2022-12-23T10:49:51.810Z,55.78
2022-12-23T10:52:22.757Z,54.47
2022-12-23T10:54:50.431Z,49.42
2022-12-23T10:57:20.332Z,49.05
2022-12-23T10:59:48.169Z,39.95
2022-12-23T11:02:15.837Z,50.63
2022-12-23T11:04:49.148Z,37.25
2022-12-23T11:07:45.750Z,36.08
2022-12-23T11:10:20.543Z,35.38
2022-12-23T11:12:51.756Z,38.70
2022-12-23T11:15:28.252Z,42.00
2022-12-23T11:18:06.684Z,41.80
2022-12-23T11:20:36.926Z,39.03
2022-12-23T11:23:06.744Z,47.83
2022-12-23T11:25:37.398Z,44.20
2022-12-23T11:28:23.214Z,44.42
2022-12-23T11:31:14.650Z,45.85
2022-12-23T11:33:53.086Z,43.38
2022-12-23T11:36:25.129Z,43.83
2022-12-23T11:38:55.439Z,48.50
2022-12-23T11:41:29.239Z,49.63
2022-12-23T11:44:01.768Z,46.15
2022-12-23T11:46:33.064Z,46.67
2022-12-23T11:49:24.996Z,52.03
2022-12-23T11:52:05.915Z,48.90
2022-12-23T11:54:35.077Z,50.47
2022-12-23T11:57:09.964Z,47.30
2022-12-23T11:59:44.401Z,54.50
2022-12-23T12:02:18.469Z,51.90
2022-12-23T12:04:58.074Z,55.28
2022-12-23T12:07:27.077Z,51.58
2022-12-23T12:09:58.836Z,54.05
2022-12-23T12:12:28.711Z,55.88
2022-12-23T12:14:59.024Z,59.13
2022-12-23T12:17:35.987Z,55.67
2022-12-23T12:20:36.774Z,50.55
2022-12-23T12:23:16.127Z,56.58
2022-12-23T12:25:50.538Z,53.67
2022-12-23T12:28:27.101Z,47.35
2022-12-23T12:31:04.739Z,50.35
2022-12-23T12:33:39.509Z,56.83
2022-12-23T12:36:12.845Z,51.90
2022-12-23T12:38:41.420Z,47.25
2022-12-23T12:41:15.083Z,47.78
2022-12-23T12:43:51.989Z,58.15
2022-12-23T12:46:19.544Z,57.05
2022-12-23T12:49:05.388Z,53.03
2022-12-23T12:51:41.956Z,46.28
2022-12-23T12:54:24.521Z,49.83
2022-12-23T12:59:28.425Z,48.08
2022-12-23T13:02:08.439Z,40.88
2022-12-23T13:05:00.642Z,44.17
2022-12-23T13:08:05.766Z,36.45
2022-12-23T13:10:33.353Z,39.50
2022-12-23T13:13:06.983Z,39.95
2022-12-23T13:15:41.785Z,39.63
2022-12-23T13:18:43.065Z,37.13
2022-12-23T13:21:41.954Z,34.63
2022-12-23T13:24:18.308Z,34.65
2022-12-23T13:26:48.623Z,33.35
2022-12-23T13:29:40.272Z,36.58
2022-12-23T13:32:20.881Z,32.67
2022-12-23T13:35:02.380Z,27.58
2022-12-23T13:37:47.408Z,24.80
2022-12-23T13:40:20.997Z,25.25
2022-12-23T13:42:55.281Z,24.75
2022-12-23T13:45:29.014Z,24.40
2022-12-23T13:48:12.364Z,24.65
2022-12-23T13:50:50.210Z,23.10
2022-12-23T13:53:27.706Z,22.52
2022-12-23T13:56:20.619Z,23.65
2022-12-23T13:58:50.839Z,21.60
2022-12-23T14:01:18.591Z,18.33
2022-12-23T14:03:49.604Z,24.40
2022-12-23T14:06:37.671Z,22.42
2022-12-23T14:09:05.264Z,29.40
2022-12-23T14:11:34.466Z,24.75
2022-12-23T14:14:05.752Z,20.60
2022-12-23T14:16:51.983Z,23.58
2022-12-23T14:19:37.841Z,22.95
2022-12-23T14:22:14.456Z,21.95
2022-12-23T14:24:58.980Z,22.38
2022-12-23T14:27:54.468Z,26.33
2022-12-23T14:30:34.083Z,20.98
2022-12-23T14:33:06.155Z,19.35
2022-12-23T14:35:40.302Z,15.13
2022-12-23T14:38:15.915Z,16.73
2022-12-23T14:40:43.508Z,19.05
2022-12-23T14:43:23.141Z,19.05
2022-12-23T14:45:52.715Z,16.48
2022-12-23T14:48:35.131Z,17.17
2022-12-23T14:51:11.534Z,15.27
2022-12-23T14:53:54.097Z,17.00
2022-12-23T14:59:51.312Z,14.63
2022-12-23T15:02:30.167Z,17.17
2022-12-23T15:05:00.394Z,15.27
2022-12-23T15:07:35.001Z,20.67
2022-12-23T15:10:16.865Z,17.80
2022-12-23T15:12:49.160Z,17.05
2022-12-23T15:15:18.648Z,17.83
2022-12-23T15:17:46.637Z,18.88
2022-12-23T15:20:16.247Z,21.83
2022-12-23T15:22:46.491Z,17.05
2022-12-23T15:25:48.524Z,17.05
2022-12-23T15:28:25.830Z,27.23
2022-12-23T15:30:56.745Z,15.68
2022-12-23T15:34:01.614Z,18.42
2022-12-23T15:36:30.646Z,18.30
2022-12-23T15:39:00.661Z,19.50
2022-12-23T15:41:28.912Z,18.13
2022-12-23T15:44:01.820Z,16.85
2022-12-23T15:46:30.840Z,20.15
2022-12-23T15:48:58.854Z,15.52
2022-12-23T15:51:57.683Z,16.50
2022-12-23T15:54:36.752Z,16.85
2022-12-23T15:57:05.679Z,19.15
2022-12-23T15:59:37.947Z,16.55
2022-12-23T16:05:08.982Z,19.02
2022-12-23T16:07:39.768Z,15.27
2022-12-23T16:10:17.648Z,23.95
2022-12-23T16:12:45.874Z,13.32
2022-12-23T16:15:39.897Z,17.60
2022-12-23T16:18:13.824Z,14.65
2022-12-23T16:20:45.492Z,13.80
2022-12-23T16:23:14.494Z,15.07
2022-12-23T16:25:50.379Z,21.17
2022-12-23T16:28:23.966Z,16.50
2022-12-23T16:30:56.972Z,20.70
2022-12-23T16:33:27.116Z,16.45
2022-12-23T16:35:55.720Z,24.05
2022-12-23T16:38:25.565Z,29.95
2022-12-23T16:40:54.913Z,20.40
2022-12-23T16:43:24.413Z,22.80
2022-12-23T16:45:55.919Z,16.70
2022-12-23T16:48:43.144Z,20.98
2022-12-23T16:51:16.965Z,18.08
2022-12-23T16:53:44.483Z,20.15
2022-12-23T16:56:16.579Z,19.67
2022-12-23T16:58:45.004Z,22.33
2022-12-23T17:01:18.535Z,24.23
2022-12-23T17:03:46.107Z,21.58
2022-12-23T17:06:17.908Z,20.80
2022-12-23T17:08:45.643Z,24.10
2022-12-23T17:11:56.301Z,19.83
2022-12-23T17:14:26.040Z,20.50
2022-12-23T17:16:54.023Z,20.85
2022-12-23T17:19:27.626Z,19.60
2022-12-23T17:22:01.692Z,20.52
2022-12-23T17:24:29.241Z,20.70
2022-12-23T17:26:57.283Z,20.30
2022-12-23T17:29:25.167Z,22.17
2022-12-23T17:31:53.346Z,19.38
2022-12-23T17:34:23.246Z,21.55
2022-12-23T17:36:51.493Z,22.45
2022-12-23T17:39:20.458Z,22.63
2022-12-23T17:41:48.361Z,21.48
2022-12-23T17:44:17.911Z,23.90
2022-12-23T17:46:48.466Z,22.10
2022-12-23T17:49:16.062Z,19.40
2022-12-23T17:51:44.162Z,19.60
2022-12-23T17:54:22.681Z,18.42
2022-12-23T17:56:50.875Z,16.88
2022-12-23T17:59:18.430Z,16.35
2022-12-23T18:01:46.142Z,16.55
2022-12-23T18:04:13.785Z,14.13
2022-12-23T18:06:41.332Z,18.77
2022-12-23T18:09:08.899Z,20.35
2022-12-23T18:11:47.642Z,24.15
2022-12-23T18:14:23.746Z,27.25
2022-12-23T18:16:51.339Z,27.70
2022-12-23T18:19:21.784Z,42.80
2022-12-23T18:21:50.491Z,37.40
2022-12-23T18:24:18.820Z,38.88
2022-12-23T18:26:47.460Z,51.42
2022-12-23T18:29:15.068Z,44.15
2022-12-23T18:31:51.957Z,58.05
2022-12-23T18:34:21.044Z,50.08
2022-12-23T18:36:51.435Z,53.65
2022-12-23T18:39:19.267Z,68.45
2022-12-23T18:41:46.791Z,65.78
2022-12-23T18:44:21.126Z,66.10
2022-12-23T18:46:50.317Z,57.45
2022-12-23T18:49:18.146Z,40.80
2022-12-23T18:51:46.021Z,51.25
2022-12-23T18:54:15.864Z,61.47
2022-12-23T18:56:44.351Z,67.22
2022-12-23T18:59:24.201Z,46.00
2022-12-23T19:01:57.188Z,50.47
2022-12-23T19:04:24.840Z,52.60
2022-12-23T19:06:52.683Z,56.72
2022-12-23T19:09:23.885Z,47.22
2022-12-23T19:11:53.882Z,41.78
2022-12-23T19:14:21.853Z,49.80
2022-12-23T19:16:52.088Z,53.60
2022-12-23T19:19:20.748Z,61.20
2022-12-23T19:21:48.277Z,44.90
2022-12-23T19:24:15.739Z,54.63
2022-12-23T19:26:43.247Z,62.63
2022-12-23T19:29:10.887Z,67.55
2022-12-23T19:31:38.437Z,48.47
2022-12-23T19:34:09.725Z,56.15
2022-12-23T19:36:42.145Z,46.17
2022-12-23T19:39:15.957Z,50.05
2022-12-23T19:41:43.842Z,61.63
2022-12-23T19:44:11.431Z,50.90
2022-12-23T19:46:38.924Z,58.55
2022-12-23T19:49:06.585Z,43.30
2022-12-23T19:51:34.092Z,51.20
2022-12-23T19:54:01.597Z,46.25
2022-12-23T19:56:30.441Z,59.60
2022-12-23T19:58:57.963Z,56.80
2022-12-23T20:01:27.142Z,40.65
2022-12-23T20:03:56.576Z,42.42
2022-12-23T20:06:26.932Z,53.00
2022-12-23T20:09:00.384Z,46.22
2022-12-23T20:11:30.762Z,38.03
2022-12-23T20:13:58.673Z,47.28
2022-12-23T20:16:26.799Z,48.70
2022-12-23T20:18:54.413Z,41.58
2022-12-23T20:21:22.569Z,42.45
2022-12-23T20:23:50.634Z,40.90
2022-12-23T20:26:20.239Z,55.47
2022-12-23T20:28:48.014Z,36.05
2022-12-23T20:31:18.840Z,37.17
2022-12-23T20:33:48.059Z,20.98
2022-12-23T20:36:17.583Z,36.72
2022-12-23T20:38:46.672Z,20.70
2022-12-23T20:41:16.838Z,27.70
2022-12-23T20:43:56.965Z,18.48
2022-12-23T20:46:32.102Z,17.40
2022-12-23T20:48:59.603Z,21.50
2022-12-23T20:51:27.169Z,28.67
2022-12-23T20:53:59.706Z,16.95
2022-12-23T20:56:29.216Z,20.13
2022-12-23T20:58:59.404Z,27.80
2022-12-23T21:01:36.080Z,26.08
2022-12-23T21:04:07.812Z,21.85
2022-12-23T21:06:36.283Z,28.65
2022-12-23T21:09:05.855Z,42.72
2022-12-23T21:11:36.200Z,24.50
2022-12-23T21:14:07.178Z,22.95
2022-12-23T21:16:37.616Z,22.00
2022-12-23T21:19:07.149Z,31.35
2022-12-23T21:21:34.820Z,20.67
2022-12-23T21:24:07.162Z,18.90
2022-12-23T21:29:04.856Z,22.40
2022-12-23T21:31:34.031Z,26.17
2022-12-23T21:34:01.834Z,28.00
2022-12-23T21:36:32.350Z,19.63
2022-12-23T21:39:01.104Z,26.05
2022-12-23T21:41:31.482Z,24.38
2022-12-23T21:44:00.928Z,18.27
2022-12-23T21:46:29.700Z,19.02
2022-12-23T21:48:59.895Z,21.38
2022-12-23T21:51:36.948Z,25.52
2022-12-23T21:54:06.924Z,18.23
2022-12-23T21:56:34.512Z,12.63
2022-12-23T21:59:04.896Z,23.05
2022-12-23T22:01:33.410Z,23.85
2022-12-23T22:04:00.998Z,19.52
2022-12-23T22:06:35.859Z,16.75
2022-12-23T22:09:03.455Z,21.80
2022-12-23T22:11:33.168Z,22.23
2022-12-23T22:14:01.966Z,40.78
2022-12-23T22:16:31.354Z,20.15
2022-12-23T22:19:00.347Z,25.23
2022-12-23T22:21:30.117Z,16.92
2022-12-23T22:23:59.152Z,18.48
2022-12-23T22:26:30.589Z,21.67
2022-12-23T22:29:00.407Z,15.70
2022-12-23T22:31:47.323Z,26.75
2022-12-23T22:34:20.716Z,19.23
2022-12-23T22:36:49.562Z,20.05
2022-12-23T22:39:21.405Z,29.15
2022-12-23T22:41:50.684Z,27.13
2022-12-23T22:44:18.680Z,26.30
2022-12-23T22:46:46.577Z,31.80
2022-12-23T22:49:15.616Z,32.22
2022-12-23T22:51:44.044Z,28.00
2022-12-23T22:54:11.874Z,25.48
2022-12-23T22:56:39.460Z,30.90
2022-12-23T22:59:07.107Z,24.67
2022-12-23T23:01:36.919Z,29.67
2022-12-23T23:04:05.293Z,34.90
2022-12-23T23:06:37.534Z,20.42
2022-12-23T23:11:33.951Z,25.02
2022-12-23T23:14:01.597Z,23.55
2022-12-23T23:16:30.139Z,24.23
2022-12-23T23:18:58.666Z,27.20
2022-12-23T23:21:26.906Z,29.60
2022-12-23T23:23:54.484Z,26.70
2022-12-23T23:26:26.746Z,30.95
2022-12-23T23:28:55.555Z,28.10
2022-12-23T23:34:10.929Z,21.00
2022-12-23T23:36:38.622Z,29.83
2022-12-23T23:39:06.171Z,24.23
2022-12-23T23:41:34.296Z,23.02
2022-12-23T23:44:01.912Z,27.88
2022-12-23T23:46:30.601Z,20.85
2022-12-23T23:48:58.723Z,39.80
2022-12-23T23:51:26.787Z,32.67
2022-12-23T23:53:54.393Z,29.27
2022-12-23T23:56:25.850Z,39.55
2022-12-23T23:58:54.289Z,37.60
